createdAt,value
2022-12-01T00:00:33.596Z,79.17
2022-12-01T00:03:03.414Z,78.07
2022-12-01T00:05:35.789Z,87.37
2022-12-01T00:08:05.903Z,68.97
2022-12-01T00:10:34.273Z,68.47
2022-12-01T00:13:05.740Z,69.80
2022-12-01T00:15:37.808Z,73.13
2022-12-01T00:18:08.232Z,80.20
2022-12-01T00:20:40.674Z,73.60
2022-12-01T00:23:10.367Z,74.93
2022-12-01T00:25:40.079Z,69.37
2022-12-01T00:28:09.765Z,67.40
2022-12-01T00:30:39.476Z,67.57
2022-12-01T00:33:09.149Z,86.33
2022-12-01T00:35:41.479Z,81.37
2022-12-01T00:38:11.140Z,78.97
2022-12-01T00:40:40.831Z,77.90
2022-12-01T00:43:10.519Z,75.57
2022-12-01T00:45:40.290Z,69.90
2022-12-01T00:48:10.063Z,71.47
2022-12-01T00:50:42.399Z,68.93
2022-12-01T00:53:12.225Z,77.70
2022-12-01T00:55:43.126Z,68.30
2022-12-01T00:58:12.898Z,94.77
2022-12-01T01:00:43.099Z,74.93
2022-12-01T01:03:13.355Z,73.70
2022-12-01T01:05:46.369Z,77.27
2022-12-01T01:08:17.609Z,89.13
2022-12-01T01:10:50.792Z,87.00
2022-12-01T01:13:20.534Z,79.27
2022-12-01T01:16:00.645Z,81.20
2022-12-01T01:18:31.284Z,71.80
2022-12-01T01:21:05.528Z,85.63
2022-12-01T01:23:35.581Z,81.37
2022-12-01T01:26:07.036Z,90.70
2022-12-01T01:28:36.992Z,73.43
2022-12-01T01:31:09.187Z,82.03
2022-12-01T01:33:39.113Z,85.70
2022-12-01T01:36:13.190Z,75.00
2022-12-01T01:38:43.188Z,77.37
2022-12-01T01:41:13.701Z,77.03
2022-12-01T01:43:48.639Z,73.40
2022-12-01T01:46:20.406Z,80.10
2022-12-01T01:48:53.868Z,87.03
2022-12-01T01:51:30.704Z,87.10
2022-12-01T01:54:05.581Z,80.37
2022-12-01T01:56:36.103Z,82.07
2022-12-01T01:59:06.860Z,87.00
2022-12-01T02:01:36.731Z,92.93
2022-12-01T02:04:07.136Z,82.20
2022-12-01T02:06:39.521Z,84.23
2022-12-01T02:09:09.188Z,74.33
2022-12-01T02:12:05.239Z,85.57
2022-12-01T02:14:52.568Z,82.93
2022-12-01T02:17:37.514Z,80.03
2022-12-01T02:20:36.616Z,84.80
2022-12-01T02:23:32.385Z,74.97
2022-12-01T02:26:17.792Z,90.60
2022-12-01T02:29:06.129Z,77.03
2022-12-01T02:31:45.960Z,86.70
2022-12-01T02:34:24.331Z,79.00
2022-12-01T02:36:58.736Z,77.83
2022-12-01T02:39:35.205Z,79.03
2022-12-01T02:42:10.625Z,85.37
2022-12-01T02:44:46.525Z,72.20
2022-12-01T02:47:19.984Z,86.30
2022-12-01T02:49:52.279Z,70.87
2022-12-01T02:52:24.868Z,76.00
2022-12-01T02:54:56.116Z,80.67
2022-12-01T02:57:26.572Z,89.53
2022-12-01T02:59:58.199Z,83.47
2022-12-01T03:02:42.598Z,80.93
2022-12-01T03:05:21.597Z,81.90
2022-12-01T03:08:03.372Z,75.77
2022-12-01T03:10:43.991Z,81.27
2022-12-01T03:13:24.781Z,78.43
2022-12-01T03:16:04.730Z,95.13
2022-12-01T03:18:41.318Z,79.77
2022-12-01T03:21:15.247Z,76.13
2022-12-01T03:23:50.796Z,75.33
2022-12-01T03:26:24.603Z,73.10
2022-12-01T03:28:58.516Z,72.67
2022-12-01T03:31:33.818Z,72.10
2022-12-01T03:34:12.730Z,68.10
2022-12-01T03:36:45.470Z,68.07
2022-12-01T03:39:20.155Z,69.20
2022-12-01T03:41:56.407Z,66.47
2022-12-01T03:44:36.920Z,76.13
2022-12-01T03:47:10.254Z,69.67
2022-12-01T03:49:43.665Z,58.33
2022-12-01T03:52:20.503Z,57.73
2022-12-01T03:54:58.641Z,65.27
2022-12-01T03:57:32.919Z,62.27
2022-12-01T04:00:03.393Z,58.07
2022-12-01T04:02:33.650Z,64.90
2022-12-01T04:05:06.332Z,70.67
2022-12-01T04:07:36.116Z,64.00
2022-12-01T04:10:06.115Z,64.00
2022-12-01T04:12:33.519Z,61.83
2022-12-01T04:15:04.626Z,63.03
2022-12-01T04:17:34.756Z,62.13
2022-12-01T04:20:08.728Z,70.60
2022-12-01T04:22:38.428Z,72.00
2022-12-01T04:25:09.904Z,72.63
2022-12-01T04:27:40.002Z,66.00
2022-12-01T04:30:11.797Z,63.03
2022-12-01T04:32:42.262Z,60.33
2022-12-01T04:35:15.551Z,58.13
2022-12-01T04:37:45.271Z,50.83
2022-12-01T04:40:15.596Z,51.00
2022-12-01T04:42:45.321Z,45.60
2022-12-01T04:45:15.027Z,42.17
2022-12-01T04:47:44.719Z,39.10
2022-12-01T04:50:17.401Z,33.57
2022-12-01T04:52:47.098Z,30.97
2022-12-01T04:55:17.184Z,29.63
2022-12-01T04:57:46.926Z,26.60
2022-12-01T05:00:18.338Z,23.83
2022-12-01T05:02:48.016Z,26.10
2022-12-01T05:05:20.543Z,27.93
2022-12-01T05:07:50.332Z,22.50
2022-12-01T05:10:20.475Z,31.97
2022-12-01T05:12:50.511Z,28.13
2022-12-01T05:15:20.859Z,24.07
2022-12-01T05:17:50.588Z,25.17
2022-12-01T05:20:39.028Z,22.93
2022-12-01T05:23:15.118Z,21.83
2022-12-01T05:25:46.396Z,19.37
2022-12-01T05:28:16.085Z,16.90
2022-12-01T05:30:46.512Z,17.60
2022-12-01T05:33:16.214Z,18.63
2022-12-01T05:35:48.853Z,16.77
2022-12-01T05:38:19.112Z,18.70
2022-12-01T05:40:53.256Z,16.43
2022-12-01T05:43:28.777Z,19.10
2022-12-01T05:45:59.990Z,20.40
2022-12-01T05:48:29.902Z,24.17
2022-12-01T05:51:02.332Z,25.97
2022-12-01T05:53:32.062Z,21.03
2022-12-01T05:56:01.744Z,21.80
2022-12-01T05:58:31.471Z,21.53
2022-12-01T06:01:01.399Z,20.97
2022-12-01T06:03:31.088Z,18.57
2022-12-01T06:06:03.732Z,18.43
2022-12-01T06:08:33.403Z,16.70
2022-12-01T06:11:03.181Z,16.77
2022-12-01T06:13:32.917Z,15.40
2022-12-01T06:16:04.424Z,17.07
2022-12-01T06:18:36.402Z,16.83
2022-12-01T06:21:09.764Z,18.67
2022-12-01T06:23:39.496Z,18.70
2022-12-01T06:26:09.293Z,18.23
2022-12-01T06:28:38.980Z,16.57
2022-12-01T06:31:08.832Z,13.23
2022-12-01T06:33:38.535Z,14.30
2022-12-01T06:36:12.175Z,13.77
2022-12-01T06:38:41.899Z,18.17
2022-12-01T06:41:11.576Z,15.57
2022-12-01T06:43:41.256Z,16.57
2022-12-01T06:46:11.019Z,13.13
2022-12-01T06:48:40.718Z,13.27
2022-12-01T06:51:13.032Z,13.57
2022-12-01T06:53:42.704Z,13.97
2022-12-01T06:56:12.395Z,13.73
2022-12-01T06:58:42.499Z,14.50
2022-12-01T07:01:13.523Z,14.67
2022-12-01T07:03:43.328Z,13.10
2022-12-01T07:06:15.668Z,17.67
2022-12-01T07:08:45.567Z,15.27
2022-12-01T07:11:17.115Z,14.60
2022-12-01T07:13:49.643Z,17.90
2022-12-01T07:16:19.951Z,18.60
2022-12-01T07:18:49.752Z,19.83
2022-12-01T07:21:22.055Z,17.60
2022-12-01T07:23:51.791Z,16.90
2022-12-01T07:26:21.893Z,17.33
2022-12-01T07:28:51.690Z,15.57
2022-12-01T07:31:22.360Z,15.60
2022-12-01T07:33:52.294Z,16.77
2022-12-01T07:36:24.596Z,15.13
2022-12-01T07:38:54.341Z,12.50
2022-12-01T07:41:24.601Z,14.40
2022-12-01T07:43:54.373Z,12.70
2022-12-01T07:46:25.697Z,15.80
2022-12-01T07:48:56.241Z,16.17
2022-12-01T07:51:29.141Z,12.70
2022-12-01T07:53:58.857Z,13.07
2022-12-01T07:56:28.639Z,12.53
2022-12-01T07:58:58.655Z,14.63
2022-12-01T08:01:28.655Z,13.63
2022-12-01T08:04:00.462Z,15.60
2022-12-01T08:06:33.017Z,14.57
2022-12-01T08:09:02.750Z,14.33
2022-12-01T08:11:32.803Z,15.57
2022-12-01T08:14:02.584Z,15.93
2022-12-01T08:16:32.279Z,16.17
2022-12-01T08:19:02.040Z,15.07
2022-12-01T08:21:34.345Z,16.57
2022-12-01T08:24:04.036Z,15.33
2022-12-01T08:26:34.234Z,14.70
2022-12-01T08:29:03.979Z,14.20
2022-12-01T08:31:35.933Z,14.10
2022-12-01T08:34:08.738Z,14.73
2022-12-01T08:36:41.117Z,16.23
2022-12-01T08:39:11.402Z,16.47
2022-12-01T08:41:41.071Z,14.37
2022-12-01T08:44:12.256Z,17.17
2022-12-01T08:46:42.051Z,15.93
2022-12-01T08:49:11.795Z,15.30
2022-12-01T08:51:44.114Z,15.27
2022-12-01T08:54:14.796Z,14.50
2022-12-01T08:56:47.229Z,18.20
2022-12-01T08:59:17.059Z,17.10
2022-12-01T09:01:55.111Z,15.90
2022-12-01T09:04:26.520Z,16.60
2022-12-01T09:07:00.673Z,17.57
2022-12-01T09:09:31.513Z,14.47
2022-12-01T09:12:01.220Z,16.07
2022-12-01T09:14:30.946Z,22.57
2022-12-01T09:17:00.718Z,18.20
2022-12-01T09:19:33.588Z,12.73
2022-12-01T09:22:05.953Z,16.50
2022-12-01T09:24:35.722Z,15.80
2022-12-01T09:27:06.059Z,17.40
2022-12-01T09:29:36.099Z,17.60
2022-12-01T09:32:05.874Z,16.27
2022-12-01T09:34:35.540Z,16.60
2022-12-01T09:37:07.869Z,18.90
2022-12-01T09:39:37.551Z,15.90
2022-12-01T09:42:14.280Z,15.97
2022-12-01T09:44:47.815Z,16.77
2022-12-01T09:47:21.593Z,16.73
2022-12-01T09:49:58.386Z,18.13
2022-12-01T09:52:36.512Z,16.10
2022-12-01T09:55:06.453Z,18.23
2022-12-01T09:57:39.961Z,17.13
2022-12-01T10:00:15.604Z,17.70
2022-12-01T10:02:50.717Z,17.53
2022-12-01T10:05:23.911Z,17.13
2022-12-01T10:07:59.310Z,16.07
2022-12-01T10:10:31.787Z,17.87
2022-12-01T10:13:01.715Z,16.27
2022-12-01T10:15:40.922Z,18.50
2022-12-01T10:18:22.549Z,16.23
2022-12-01T10:20:59.984Z,15.73
2022-12-01T10:23:46.953Z,17.90
2022-12-01T10:26:20.176Z,15.67
2022-12-01T10:29:12.818Z,15.53
2022-12-01T10:31:53.458Z,15.53
2022-12-01T10:34:26.085Z,16.50
2022-12-01T10:36:56.107Z,15.03
2022-12-01T10:39:31.790Z,14.87
2022-12-01T10:42:08.944Z,11.90
2022-12-01T10:44:40.292Z,14.47
2022-12-01T10:47:20.416Z,13.23
2022-12-01T10:49:50.930Z,11.53
2022-12-01T10:52:37.192Z,12.97
2022-12-01T10:55:31.403Z,12.80
2022-12-01T10:58:09.054Z,12.33
2022-12-01T11:00:59.006Z,14.03
2022-12-01T11:03:33.107Z,16.33
2022-12-01T11:06:05.044Z,16.77
2022-12-01T11:08:41.965Z,16.13
2022-12-01T11:11:28.204Z,13.57
2022-12-01T11:13:59.825Z,14.87
2022-12-01T11:16:42.389Z,14.20
2022-12-01T11:19:27.356Z,12.10
2022-12-01T11:21:59.629Z,12.30
2022-12-01T11:24:42.318Z,12.83
2022-12-01T11:27:21.286Z,14.20
2022-12-01T11:29:53.368Z,14.00
2022-12-01T11:32:25.881Z,16.80
2022-12-01T11:34:59.812Z,15.63
2022-12-01T11:37:33.288Z,16.03
2022-12-01T11:40:11.089Z,17.70
2022-12-01T11:42:44.272Z,21.20
2022-12-01T11:45:29.414Z,21.20
2022-12-01T11:48:08.600Z,23.97
2022-12-01T11:50:40.584Z,28.50
2022-12-01T11:53:29.613Z,28.97
2022-12-01T11:56:17.583Z,31.70
2022-12-01T11:58:51.885Z,29.90
2022-12-01T12:01:31.859Z,34.67
2022-12-01T12:04:13.188Z,38.00
2022-12-01T12:06:50.733Z,37.70
2022-12-01T12:09:47.857Z,35.23
2022-12-01T12:12:32.613Z,44.37
2022-12-01T12:15:13.448Z,38.43
2022-12-01T12:18:01.556Z,44.40
2022-12-01T12:20:41.548Z,38.80
2022-12-01T12:23:25.146Z,35.30
2022-12-01T12:26:04.969Z,37.30
2022-12-01T12:28:49.840Z,40.70
2022-12-01T12:31:31.155Z,38.07
2022-12-01T12:34:25.389Z,37.53
2022-12-01T12:37:04.372Z,34.50
2022-12-01T12:39:50.976Z,34.70
2022-12-01T12:42:27.629Z,34.63
2022-12-01T12:45:05.140Z,37.40
2022-12-01T12:47:52.189Z,33.40
2022-12-01T12:50:30.941Z,38.73
2022-12-01T12:53:05.447Z,36.67
2022-12-01T12:55:40.116Z,38.60
2022-12-01T12:58:23.382Z,41.33
2022-12-01T13:00:59.863Z,41.80
2022-12-01T13:03:48.264Z,35.37
2022-12-01T13:06:22.886Z,39.10
2022-12-01T13:08:56.624Z,44.90
2022-12-01T13:11:30.407Z,38.43
2022-12-01T13:14:06.595Z,45.07
2022-12-01T13:16:39.428Z,41.53
2022-12-01T13:19:18.237Z,39.17
2022-12-01T13:21:51.127Z,39.37
2022-12-01T13:24:24.123Z,40.23
2022-12-01T13:27:00.352Z,38.67
2022-12-01T13:29:43.656Z,38.47
2022-12-01T13:32:30.119Z,41.43
2022-12-01T13:35:05.631Z,38.80
2022-12-01T13:37:37.300Z,39.00
2022-12-01T13:40:13.351Z,44.27
2022-12-01T13:42:43.714Z,40.27
2022-12-01T13:45:21.333Z,39.20
2022-12-01T13:47:54.488Z,43.70
2022-12-01T13:51:06.180Z,42.63
2022-12-01T13:53:40.354Z,42.80
2022-12-01T13:56:30.381Z,39.00
2022-12-01T13:59:00.102Z,42.37
2022-12-01T14:01:47.274Z,45.40
2022-12-01T14:04:32.460Z,41.77
2022-12-01T14:07:25.328Z,44.30
2022-12-01T14:10:01.812Z,43.43
2022-12-01T14:12:37.877Z,46.93
2022-12-01T14:15:25.401Z,45.30
2022-12-01T14:18:03.854Z,46.27
2022-12-01T14:20:37.446Z,49.07
2022-12-01T14:23:16.778Z,48.23
2022-12-01T14:26:14.301Z,46.23
2022-12-01T14:29:22.819Z,51.93
2022-12-01T14:32:24.036Z,46.33
2022-12-01T14:34:57.207Z,45.70
2022-12-01T14:37:31.887Z,50.47
2022-12-01T14:40:08.779Z,43.77
2022-12-01T14:42:56.173Z,46.27
2022-12-01T14:45:29.685Z,48.43
2022-12-01T14:48:04.697Z,46.30
2022-12-01T14:50:46.383Z,52.37
2022-12-01T14:53:26.344Z,43.47
2022-12-01T14:55:59.405Z,46.90
2022-12-01T14:58:33.535Z,45.60
2022-12-01T15:01:09.268Z,42.43
2022-12-01T15:03:42.894Z,43.33
2022-12-01T15:06:18.887Z,46.83
2022-12-01T15:09:10.465Z,48.33
2022-12-01T15:11:41.494Z,48.63
2022-12-01T15:14:31.561Z,50.77
2022-12-01T15:17:02.804Z,46.60
2022-12-01T15:19:40.448Z,48.17
2022-12-01T15:22:16.361Z,51.20
2022-12-01T15:24:47.335Z,52.87
2022-12-01T15:27:38.180Z,54.67
2022-12-01T15:30:16.952Z,57.20
2022-12-01T15:32:47.385Z,53.67
2022-12-01T15:35:21.486Z,49.90
2022-12-01T15:37:52.382Z,52.70
2022-12-01T15:41:06.186Z,53.83
2022-12-01T15:43:20.046Z,56.40
2022-12-01T15:45:57.318Z,53.10
2022-12-01T15:48:34.826Z,57.70
2022-12-01T15:51:09.984Z,61.03
2022-12-01T15:53:42.823Z,59.50
2022-12-01T15:56:14.386Z,60.80
2022-12-01T15:58:47.147Z,63.73
2022-12-01T16:01:22.160Z,60.00
2022-12-01T16:03:59.968Z,61.67
2022-12-01T16:06:32.076Z,61.93
2022-12-01T16:09:04.987Z,62.80
2022-12-01T16:11:34.833Z,56.37
2022-12-01T16:14:08.299Z,64.63
2022-12-01T16:16:44.448Z,65.53
2022-12-01T16:19:29.348Z,62.07
2022-12-01T16:22:05.951Z,67.87
2022-12-01T16:24:38.320Z,67.37
2022-12-01T16:27:19.500Z,71.83
2022-12-01T16:29:52.784Z,72.80
2022-12-01T16:32:29.629Z,69.53
2022-12-01T16:34:59.769Z,72.80
2022-12-01T16:37:29.796Z,67.07
2022-12-01T16:40:00.408Z,57.33
2022-12-01T16:42:30.394Z,60.73
2022-12-01T16:45:00.102Z,64.97
2022-12-01T16:47:34.792Z,69.80
2022-12-01T16:50:04.516Z,73.33
2022-12-01T16:52:44.182Z,70.60
2022-12-01T16:55:33.676Z,66.50
2022-12-01T16:58:03.397Z,60.67
2022-12-01T17:00:33.371Z,64.73
2022-12-01T17:03:06.202Z,61.30
2022-12-01T17:05:36.396Z,61.17
2022-12-01T17:08:07.258Z,61.93
2022-12-01T17:10:37.299Z,66.63
2022-12-01T17:13:06.991Z,61.97
2022-12-01T17:15:36.902Z,62.27
2022-12-01T17:18:09.428Z,58.07
2022-12-01T17:20:39.163Z,60.83
2022-12-01T17:23:09.072Z,57.67
2022-12-01T17:25:43.219Z,52.13
2022-12-01T17:28:12.915Z,56.70
2022-12-01T17:30:43.089Z,55.03
2022-12-01T17:33:15.458Z,55.77
2022-12-01T17:35:45.126Z,54.90
2022-12-01T17:38:14.811Z,52.30
2022-12-01T17:40:44.596Z,55.63
2022-12-01T17:43:14.288Z,55.47
2022-12-01T17:45:45.984Z,49.93
2022-12-01T17:48:18.274Z,54.03
2022-12-01T17:50:47.960Z,53.20
2022-12-01T17:53:17.637Z,58.73
2022-12-01T17:55:47.338Z,56.93
2022-12-01T17:58:18.898Z,55.00
2022-12-01T18:00:48.603Z,53.43
2022-12-01T18:03:21.409Z,56.10
2022-12-01T18:05:58.619Z,53.17
2022-12-01T18:08:30.430Z,54.20
2022-12-01T18:11:03.871Z,54.03
2022-12-01T18:13:33.552Z,53.10
2022-12-01T18:16:03.340Z,53.53
2022-12-01T18:18:35.729Z,53.23
2022-12-01T18:21:07.897Z,55.93
2022-12-01T18:23:38.636Z,53.63
2022-12-01T18:26:15.408Z,51.80
2022-12-01T18:28:45.821Z,56.93
2022-12-01T18:31:17.618Z,61.97
2022-12-01T18:33:50.044Z,54.60
2022-12-01T18:36:21.905Z,54.70
2022-12-01T18:38:52.621Z,55.60
2022-12-01T18:41:22.977Z,59.67
2022-12-01T18:43:53.052Z,54.43
2022-12-01T18:46:23.771Z,55.87
2022-12-01T18:49:00.999Z,59.07
2022-12-01T18:51:31.312Z,53.00
2022-12-01T18:54:02.871Z,55.20
2022-12-01T18:56:33.581Z,54.60
2022-12-01T18:59:05.021Z,56.97
2022-12-01T19:01:36.753Z,59.00
2022-12-01T19:04:11.060Z,55.43
2022-12-01T19:06:42.047Z,56.77
2022-12-01T19:09:15.514Z,55.70
2022-12-01T19:11:45.760Z,59.57
2022-12-01T19:14:18.451Z,53.90
2022-12-01T19:16:48.991Z,53.20
2022-12-01T19:19:21.304Z,58.73
2022-12-01T19:21:51.206Z,56.40
2022-12-01T19:24:20.940Z,64.43
2022-12-01T19:26:50.748Z,55.13
2022-12-01T19:29:20.711Z,53.13
2022-12-01T19:31:50.604Z,52.47
2022-12-01T19:34:23.043Z,50.53
2022-12-01T19:36:53.778Z,52.80
2022-12-01T19:39:23.543Z,52.67
2022-12-01T19:41:53.259Z,56.43
2022-12-01T19:44:23.201Z,55.00
2022-12-01T19:46:52.928Z,56.13
2022-12-01T19:49:25.261Z,59.73
2022-12-01T19:51:54.935Z,53.53
2022-12-01T19:54:24.920Z,57.43
2022-12-01T19:56:54.685Z,59.57
2022-12-01T19:59:24.515Z,54.27
2022-12-01T20:01:54.337Z,55.60
2022-12-01T20:04:26.779Z,54.50
2022-12-01T20:06:56.467Z,62.23
2022-12-01T20:09:26.217Z,59.77
2022-12-01T20:11:57.876Z,59.07
2022-12-01T20:14:27.699Z,57.10
2022-12-01T20:16:58.131Z,57.87
2022-12-01T20:19:30.491Z,57.23
2022-12-01T20:22:00.207Z,52.13
2022-12-01T20:24:29.892Z,55.03
2022-12-01T20:26:59.638Z,53.80
2022-12-01T20:29:31.605Z,50.73
2022-12-01T20:32:03.225Z,53.87
2022-12-01T20:34:38.424Z,53.40
2022-12-01T20:37:08.173Z,55.63
2022-12-01T20:39:39.895Z,54.03
2022-12-01T20:42:10.156Z,54.17
2022-12-01T20:44:40.573Z,53.83
2022-12-01T20:47:10.656Z,55.27
2022-12-01T20:49:42.988Z,49.90
2022-12-01T20:52:12.668Z,55.67
2022-12-01T20:54:42.608Z,53.60
2022-12-01T20:57:12.290Z,52.10
2022-12-01T20:59:42.027Z,47.10
2022-12-01T21:02:12.793Z,48.50
2022-12-01T21:04:45.327Z,50.53
2022-12-01T21:07:15.184Z,47.67
2022-12-01T21:09:44.880Z,44.90
2022-12-01T21:12:29.515Z,45.07
2022-12-01T21:15:05.511Z,46.67
2022-12-01T21:17:38.247Z,43.63
2022-12-01T21:20:22.175Z,41.33
2022-12-01T21:22:53.646Z,45.17
2022-12-01T21:25:25.716Z,44.50
2022-12-01T21:27:59.120Z,48.93
2022-12-01T21:30:30.094Z,44.37
2022-12-01T21:33:17.338Z,42.60
2022-12-01T21:35:52.913Z,44.97
2022-12-01T21:38:22.697Z,50.57
2022-12-01T21:40:52.433Z,47.40
2022-12-01T21:43:24.667Z,48.60
2022-12-01T21:46:00.700Z,48.00
2022-12-01T21:48:37.892Z,44.60
2022-12-01T21:51:23.017Z,44.57
2022-12-01T21:53:53.837Z,44.67
2022-12-01T21:56:26.609Z,49.57
2022-12-01T21:59:00.342Z,41.77
2022-12-01T22:01:31.830Z,49.13
2022-12-01T22:04:03.331Z,47.00
2022-12-01T22:06:40.008Z,46.60
2022-12-01T22:09:17.352Z,49.00
2022-12-01T22:11:50.218Z,47.03
2022-12-01T22:14:23.808Z,45.30
2022-12-01T22:16:59.164Z,51.93
2022-12-01T22:19:32.526Z,46.40
2022-12-01T22:22:21.772Z,49.90
2022-12-01T22:24:53.853Z,47.30
2022-12-01T22:27:35.723Z,48.67
2022-12-01T22:30:16.916Z,43.83
2022-12-01T22:32:57.074Z,45.57
2022-12-01T22:35:36.529Z,50.50
2022-12-01T22:38:29.777Z,43.60
2022-12-01T22:41:01.657Z,51.50
2022-12-01T22:43:50.364Z,50.37
2022-12-01T22:46:33.063Z,50.80
2022-12-01T22:49:05.795Z,43.43
2022-12-01T22:51:43.162Z,46.57
2022-12-01T22:54:33.044Z,49.43
2022-12-01T22:57:35.113Z,51.80
2022-12-01T23:00:16.780Z,53.43
2022-12-01T23:02:46.727Z,50.70
2022-12-01T23:05:24.131Z,44.07
2022-12-01T23:07:54.979Z,49.53
2022-12-01T23:10:29.032Z,50.53
2022-12-01T23:13:02.692Z,46.83
2022-12-01T23:15:34.990Z,51.37
2022-12-01T23:18:14.555Z,44.10
2022-12-01T23:20:45.079Z,48.23
2022-12-01T23:23:17.624Z,43.77
2022-12-01T23:25:52.742Z,48.43
2022-12-01T23:28:23.172Z,44.93
2022-12-01T23:30:55.784Z,44.50
2022-12-01T23:33:26.936Z,49.03
2022-12-01T23:35:59.241Z,44.53
2022-12-01T23:38:33.230Z,45.20
2022-12-01T23:41:09.583Z,41.87
2022-12-01T23:43:42.885Z,42.93
2022-12-01T23:46:15.050Z,50.40
2022-12-01T23:48:48.630Z,48.37
2022-12-01T23:51:22.785Z,45.20
2022-12-01T23:53:53.660Z,48.13
2022-12-01T23:56:30.326Z,44.97
2022-12-01T23:59:03.472Z,48.53
